الصفحة الرئيسية
METAR-TAF:

METAR-TAF

مطار :

مطار بينيتو خواريز الدولي

مدينة مكسيكو, المكسيك

دائرة عرض: 19-26N, خط طول: 099-06W, ارتفاع: 2238 متر

مراقبة الطقس الحالي

تاريخ ووقت الإصدار 53 دقيقة قبل الساعة 06:45UTC
ريح 3 عقدة من الغرب/الجنوب الغربي
درجة الحرارة 17°درجة مئوية
الرطوبة 29%
ضغط 1024 hPa
الرؤية: 19.3 كم
سماء صافية

METAR: MMMX 210645Z 25003KT 12SM SKC 17/M01 A3023 NOSIG

زمن: 01:38 (07:38 UTC)

توقعات

تاريخ ووقت الإصدار 3ساعات و 12 دقيقة قبل الساعة 04:26UTC
التوقعات صالحة من21 الساعة 06 UTC إلى 22 الساعة 12 UTC
ريح 6 عقدة من الجنوب/الجنوب الشرقي
الرؤية: 10 كم
سماء صافية
من 21 الساعة 1800 UTC
ريح 10 عقدة من الجنوب/الجنوب الغربي
الرؤية: 10 كم
غيوم متفرقة على ارتفاع 2000 قدم
أصبح
من 22 الساعة 05 UTC إلى 22 الساعة 07 UTC
ريح 4 عقدة من الشمال/الشمال الشرقي
سماء صافية

TAF: MMMX 210426Z 2106/2212 16006KT P6SM SKC TX27/2121Z TN12/2112Z FM211800 20010KT P6SM SCT020 BECMG 2205/2207 02004KT SKC

أرصاد الطقس والتوقعات من أكثر من 4000 مطار (تقارير الطقس للمطار METAR والتنبؤ بالطقس بالمطارTAF).

المحطات المتاحة هي النقط الصفراء والحمراء على الخريطة.

حرك المؤشر فوق النقطة لمعرفة اسم المحطة.

ثم انقر لمعرفة أرصاد وتوقعات الطقس.

لتغيير الخارطة: اضغط على الأزرار الخضراء مع رمز الصليب الأسود للتكبير. على الزر الأخضر مع شرطة للتصغير، أو على الأسهم الخضراء للخرائط المجاورة.


METAR-TAF: